createdAt,value
2023-04-30T00:07:36.506Z,18.80
2023-04-30T00:18:02.186Z,22.80
2023-04-30T00:28:28.200Z,22.00
2023-04-30T00:38:53.624Z,21.40
2023-04-30T00:49:19.299Z,20.00
2023-04-30T00:59:45.731Z,21.20
2023-04-30T01:10:13.913Z,18.90
2023-04-30T01:31:22.772Z,16.30
2023-04-30T01:41:57.986Z,15.00
2023-04-30T01:52:32.967Z,14.40
2023-04-30T02:02:59.513Z,13.10
2023-04-30T02:13:25.255Z,9.60
2023-04-30T02:23:50.822Z,9.20
2023-04-30T02:34:16.504Z,6.70
2023-04-30T02:44:42.098Z,6.60
2023-04-30T02:55:17.118Z,5.60
2023-04-30T03:05:42.687Z,8.60
2023-04-30T03:16:09.170Z,13.20
2023-04-30T03:26:35.038Z,13.40
2023-04-30T03:37:01.855Z,14.70
2023-04-30T03:47:27.487Z,11.90
2023-04-30T03:57:54.312Z,11.00
2023-04-30T04:08:20.088Z,11.80
2023-04-30T04:18:45.991Z,13.20
2023-04-30T04:29:12.770Z,13.50
2023-04-30T04:39:38.663Z,12.50
2023-04-30T04:50:05.066Z,15.50
2023-04-30T05:00:30.910Z,12.90
2023-04-30T05:10:56.767Z,19.10
2023-04-30T05:21:23.488Z,13.20
2023-04-30T05:31:49.028Z,13.50
2023-04-30T05:42:14.906Z,12.20
2023-04-30T05:52:41.570Z,11.70
2023-04-30T06:03:07.864Z,11.10
2023-04-30T06:13:34.570Z,11.60
2023-04-30T06:24:00.820Z,8.70
2023-04-30T06:34:26.100Z,10.90
2023-04-30T06:44:51.562Z,11.40
2023-04-30T06:55:17.512Z,11.80
2023-04-30T07:05:43.995Z,10.70
2023-04-30T07:16:11.467Z,11.80
2023-04-30T07:26:37.642Z,7.10
2023-04-30T07:37:03.426Z,9.20
2023-04-30T07:47:29.578Z,8.70
2023-04-30T07:57:55.563Z,8.00
2023-04-30T08:08:21.439Z,7.50
2023-04-30T08:18:49.451Z,7.70
2023-04-30T08:29:15.466Z,6.70
2023-04-30T08:39:41.034Z,6.90
2023-04-30T08:50:07.914Z,7.10
2023-04-30T09:00:35.688Z,6.30
2023-04-30T09:11:02.035Z,7.70
2023-04-30T09:21:38.696Z,5.70
2023-04-30T09:32:11.852Z,5.90
2023-04-30T09:42:38.235Z,6.30
2023-04-30T09:53:10.197Z,4.90
2023-04-30T10:03:36.802Z,6.60
2023-04-30T10:14:04.714Z,4.50
2023-04-30T10:24:31.840Z,7.10
2023-04-30T10:35:11.158Z,5.90
2023-04-30T10:45:44.190Z,3.20
2023-04-30T10:56:11.153Z,6.50
2023-04-30T11:06:56.386Z,4.90
2023-04-30T11:17:28.378Z,4.30
2023-04-30T11:27:57.544Z,4.60
2023-04-30T11:38:31.459Z,5.10
2023-04-30T11:48:58.674Z,3.70
2023-04-30T11:59:24.623Z,6.00
2023-04-30T12:09:57.247Z,4.40
2023-04-30T12:20:24.789Z,3.50
2023-04-30T12:30:50.893Z,4.00
2023-04-30T12:41:17.695Z,2.40
2023-04-30T12:51:45.612Z,3.20
2023-04-30T13:02:15.897Z,3.30
2023-04-30T13:12:41.626Z,4.10
2023-04-30T13:23:07.650Z,5.90
2023-04-30T13:33:33.049Z,5.00
2023-04-30T13:44:00.211Z,3.40
2023-04-30T13:54:25.727Z,4.30
2023-04-30T14:05:04.520Z,3.40
2023-04-30T14:15:33.077Z,3.70
2023-04-30T14:25:59.044Z,3.90
2023-04-30T14:36:25.352Z,6.80
2023-04-30T14:46:51.239Z,3.80
2023-04-30T14:57:18.697Z,4.10
2023-04-30T15:07:44.632Z,6.60
2023-04-30T15:18:10.897Z,4.10
2023-04-30T15:28:37.196Z,3.80
2023-04-30T15:39:03.978Z,4.90
2023-04-30T15:49:29.445Z,3.30
2023-04-30T15:59:56.524Z,4.60
2023-04-30T16:10:23.051Z,4.80
2023-04-30T16:20:50.143Z,4.40
2023-04-30T16:31:16.967Z,3.40
2023-04-30T16:41:43.438Z,6.90
2023-04-30T16:52:09.762Z,5.70
2023-04-30T17:02:35.635Z,5.20
2023-04-30T17:13:04.136Z,4.00
2023-04-30T17:23:29.888Z,4.80
2023-04-30T17:33:56.037Z,11.60
2023-04-30T17:44:21.656Z,13.90
2023-04-30T17:54:47.687Z,5.50
2023-04-30T18:05:14.809Z,9.20
2023-04-30T18:15:42.773Z,14.00
2023-04-30T18:26:08.657Z,9.90
2023-04-30T18:36:36.285Z,12.10
2023-04-30T18:47:02.235Z,10.30
2023-04-30T18:57:28.720Z,9.20
2023-04-30T19:07:54.642Z,10.20
2023-04-30T19:18:20.269Z,9.00
2023-04-30T19:28:45.641Z,6.30
2023-04-30T19:39:12.089Z,6.30
2023-04-30T19:49:38.141Z,16.90
2023-04-30T20:00:06.506Z,9.40
2023-04-30T20:10:33.999Z,8.10
2023-04-30T20:21:00.782Z,10.10
2023-04-30T20:31:31.304Z,9.50
2023-04-30T20:41:59.262Z,10.40
2023-04-30T20:52:24.957Z,13.50
2023-04-30T21:02:52.104Z,14.70
2023-04-30T21:13:17.906Z,12.10
2023-04-30T21:23:47.360Z,17.50
2023-04-30T21:34:13.995Z,13.60
2023-04-30T21:44:40.258Z,15.00
2023-04-30T21:55:06.718Z,16.10
2023-04-30T22:05:32.503Z,22.50
2023-04-30T22:15:58.412Z,21.10
2023-04-30T22:26:25.439Z,25.90
2023-04-30T22:36:51.805Z,23.40
2023-04-30T22:47:18.433Z,25.80
2023-04-30T22:57:44.343Z,25.60
2023-04-30T23:08:10.260Z,23.40
2023-04-30T23:18:37.163Z,18.30
2023-04-30T23:29:02.941Z,24.00
2023-04-30T23:39:29.206Z,18.90
2023-04-30T23:49:55.351Z,23.40
